sensor_id;sensor_type;location;lat;lon;timestamp;P1;durP1;ratioP1;P2;durP2;ratioP2
48685;SDS011;34485;51.536;3.816;2023-09-07T00:01:08;29.70;;;16.80;;
48685;SDS011;34485;51.536;3.816;2023-09-07T00:03:33;22.40;;;17.47;;
48685;SDS011;34485;51.536;3.816;2023-09-07T00:05:59;24.03;;;17.30;;
48685;SDS011;34485;51.536;3.816;2023-09-07T00:08:24;28.20;;;17.33;;
48685;SDS011;34485;51.536;3.816;2023-09-07T00:10:50;27.43;;;18.60;;
48685;SDS011;34485;51.536;3.816;2023-09-07T00:13:16;27.67;;;19.10;;
48685;SDS011;34485;51.536;3.816;2023-09-07T00:15:42;29.00;;;18.40;;
48685;SDS011;34485;51.536;3.816;2023-09-07T00:18:08;29.17;;;18.53;;
48685;SDS011;34485;51.536;3.816;2023-09-07T00:20:34;28.77;;;18.73;;
48685;SDS011;34485;51.536;3.816;2023-09-07T00:23:00;27.23;;;19.23;;
48685;SDS011;34485;51.536;3.816;2023-09-07T00:25:26;27.40;;;18.85;;
48685;SDS011;34485;51.536;3.816;2023-09-07T00:27:52;23.70;;;17.35;;
48685;SDS011;34485;51.536;3.816;2023-09-07T00:30:17;25.20;;;18.60;;
48685;SDS011;34485;51.536;3.816;2023-09-07T00:32:43;31.02;;;20.15;;
48685;SDS011;34485;51.536;3.816;2023-09-07T00:35:09;27.17;;;19.07;;
48685;SDS011;34485;51.536;3.816;2023-09-07T00:37:35;32.33;;;20.42;;
48685;SDS011;34485;51.536;3.816;2023-09-07T00:40:01;24.92;;;18.33;;
48685;SDS011;34485;51.536;3.816;2023-09-07T00:42:28;27.07;;;17.43;;
48685;SDS011;34485;51.536;3.816;2023-09-07T00:44:54;22.15;;;16.10;;
48685;SDS011;34485;51.536;3.816;2023-09-07T00:47:19;24.10;;;17.77;;
48685;SDS011;34485;51.536;3.816;2023-09-07T00:49:46;25.05;;;17.02;;
48685;SDS011;34485;51.536;3.816;2023-09-07T00:52:12;23.57;;;16.60;;
48685;SDS011;34485;51.536;3.816;2023-09-07T00:54:37;25.73;;;17.42;;
48685;SDS011;34485;51.536;3.816;2023-09-07T00:57:05;27.50;;;17.80;;
48685;SDS011;34485;51.536;3.816;2023-09-07T00:59:32;25.05;;;17.45;;
48685;SDS011;34485;51.536;3.816;2023-09-07T01:01:58;29.90;;;18.13;;
48685;SDS011;34485;51.536;3.816;2023-09-07T01:04:24;22.42;;;17.42;;
48685;SDS011;34485;51.536;3.816;2023-09-07T01:06:52;19.17;;;14.97;;
48685;SDS011;34485;51.536;3.816;2023-09-07T01:09:23;20.30;;;15.00;;
48685;SDS011;34485;51.536;3.816;2023-09-07T01:11:50;21.25;;;15.48;;
48685;SDS011;34485;51.536;3.816;2023-09-07T01:14:17;23.80;;;14.68;;
48685;SDS011;34485;51.536;3.816;2023-09-07T01:16:43;19.73;;;13.23;;
48685;SDS011;34485;51.536;3.816;2023-09-07T01:19:09;16.88;;;12.98;;
48685;SDS011;34485;51.536;3.816;2023-09-07T01:21:37;21.65;;;12.02;;
48685;SDS011;34485;51.536;3.816;2023-09-07T01:24:07;16.63;;;12.00;;
48685;SDS011;34485;51.536;3.816;2023-09-07T01:26:35;22.38;;;12.82;;
48685;SDS011;34485;51.536;3.816;2023-09-07T01:29:04;16.77;;;12.67;;
48685;SDS011;34485;51.536;3.816;2023-09-07T01:31:30;18.63;;;12.40;;
48685;SDS011;34485;51.536;3.816;2023-09-07T01:33:55;15.88;;;11.48;;
48685;SDS011;34485;51.536;3.816;2023-09-07T01:36:21;16.10;;;12.07;;
48685;SDS011;34485;51.536;3.816;2023-09-07T01:38:47;16.70;;;12.07;;
48685;SDS011;34485;51.536;3.816;2023-09-07T01:41:12;19.63;;;13.37;;
48685;SDS011;34485;51.536;3.816;2023-09-07T01:43:38;18.35;;;13.10;;
48685;SDS011;34485;51.536;3.816;2023-09-07T01:46:04;17.05;;;12.15;;
48685;SDS011;34485;51.536;3.816;2023-09-07T01:48:30;20.97;;;12.60;;
48685;SDS011;34485;51.536;3.816;2023-09-07T01:50:55;19.48;;;12.38;;
48685;SDS011;34485;51.536;3.816;2023-09-07T01:53:21;17.30;;;12.10;;
48685;SDS011;34485;51.536;3.816;2023-09-07T01:55:46;15.97;;;11.00;;
48685;SDS011;34485;51.536;3.816;2023-09-07T01:58:12;15.03;;;12.23;;
48685;SDS011;34485;51.536;3.816;2023-09-07T02:00:38;19.13;;;11.48;;
48685;SDS011;34485;51.536;3.816;2023-09-07T02:03:05;16.05;;;10.32;;
48685;SDS011;34485;51.536;3.816;2023-09-07T02:05:30;15.67;;;9.43;;
48685;SDS011;34485;51.536;3.816;2023-09-07T02:07:59;13.48;;;10.02;;
48685;SDS011;34485;51.536;3.816;2023-09-07T02:10:25;13.90;;;10.40;;
48685;SDS011;34485;51.536;3.816;2023-09-07T02:12:51;13.05;;;9.82;;
48685;SDS011;34485;51.536;3.816;2023-09-07T02:15:16;16.30;;;10.83;;
48685;SDS011;34485;51.536;3.816;2023-09-07T02:17:42;16.83;;;9.50;;
48685;SDS011;34485;51.536;3.816;2023-09-07T02:20:10;14.50;;;8.80;;
48685;SDS011;34485;51.536;3.816;2023-09-07T02:22:37;12.98;;;9.70;;
48685;SDS011;34485;51.536;3.816;2023-09-07T02:25:03;14.07;;;10.50;;
48685;SDS011;34485;51.536;3.816;2023-09-07T02:27:30;14.43;;;11.45;;
48685;SDS011;34485;51.536;3.816;2023-09-07T02:29:57;12.93;;;9.75;;
48685;SDS011;34485;51.536;3.816;2023-09-07T02:32:23;11.30;;;9.47;;
48685;SDS011;34485;51.536;3.816;2023-09-07T02:34:48;12.50;;;9.27;;
48685;SDS011;34485;51.536;3.816;2023-09-07T02:37:14;15.23;;;9.68;;
48685;SDS011;34485;51.536;3.816;2023-09-07T02:39:41;10.53;;;8.63;;
48685;SDS011;34485;51.536;3.816;2023-09-07T02:42:07;12.27;;;8.95;;
48685;SDS011;34485;51.536;3.816;2023-09-07T02:44:32;15.93;;;9.50;;
48685;SDS011;34485;51.536;3.816;2023-09-07T02:46:58;14.43;;;10.17;;
48685;SDS011;34485;51.536;3.816;2023-09-07T02:49:24;12.37;;;9.27;;
48685;SDS011;34485;51.536;3.816;2023-09-07T02:51:49;12.55;;;10.95;;
48685;SDS011;34485;51.536;3.816;2023-09-07T02:54:15;11.40;;;9.70;;
48685;SDS011;34485;51.536;3.816;2023-09-07T02:56:40;14.13;;;9.77;;
48685;SDS011;34485;51.536;3.816;2023-09-07T02:59:06;17.58;;;10.63;;
48685;SDS011;34485;51.536;3.816;2023-09-07T03:01:31;12.23;;;9.87;;
48685;SDS011;34485;51.536;3.816;2023-09-07T03:03:57;12.20;;;10.10;;
48685;SDS011;34485;51.536;3.816;2023-09-07T03:06:22;15.77;;;10.23;;
48685;SDS011;34485;51.536;3.816;2023-09-07T03:08:51;12.23;;;10.80;;
48685;SDS011;34485;51.536;3.816;2023-09-07T03:11:17;17.97;;;10.23;;
48685;SDS011;34485;51.536;3.816;2023-09-07T03:13:43;20.08;;;10.85;;
48685;SDS011;34485;51.536;3.816;2023-09-07T03:16:08;14.23;;;11.63;;
48685;SDS011;34485;51.536;3.816;2023-09-07T03:18:34;12.55;;;10.80;;
48685;SDS011;34485;51.536;3.816;2023-09-07T03:21:00;17.03;;;11.03;;
48685;SDS011;34485;51.536;3.816;2023-09-07T03:23:28;14.82;;;10.80;;
48685;SDS011;34485;51.536;3.816;2023-09-07T03:25:54;13.23;;;10.77;;
48685;SDS011;34485;51.536;3.816;2023-09-07T03:28:19;13.40;;;11.27;;
48685;SDS011;34485;51.536;3.816;2023-09-07T03:30:45;14.02;;;10.73;;
48685;SDS011;34485;51.536;3.816;2023-09-07T03:33:11;17.17;;;11.37;;
48685;SDS011;34485;51.536;3.816;2023-09-07T03:35:36;16.23;;;11.70;;
48685;SDS011;34485;51.536;3.816;2023-09-07T03:38:03;18.40;;;12.20;;
48685;SDS011;34485;51.536;3.816;2023-09-07T03:40:28;15.50;;;12.32;;
48685;SDS011;34485;51.536;3.816;2023-09-07T03:42:54;18.50;;;12.73;;
48685;SDS011;34485;51.536;3.816;2023-09-07T03:45:20;20.87;;;12.50;;
48685;SDS011;34485;51.536;3.816;2023-09-07T03:47:45;16.67;;;12.48;;
48685;SDS011;34485;51.536;3.816;2023-09-07T03:50:11;17.93;;;12.10;;
48685;SDS011;34485;51.536;3.816;2023-09-07T03:52:36;16.47;;;10.97;;
48685;SDS011;34485;51.536;3.816;2023-09-07T03:55:02;13.87;;;11.10;;
48685;SDS011;34485;51.536;3.816;2023-09-07T03:57:28;18.58;;;12.02;;
48685;SDS011;34485;51.536;3.816;2023-09-07T03:59:54;18.43;;;12.23;;
48685;SDS011;34485;51.536;3.816;2023-09-07T04:02:21;17.02;;;12.68;;
48685;SDS011;34485;51.536;3.816;2023-09-07T04:04:48;18.60;;;13.10;;
48685;SDS011;34485;51.536;3.816;2023-09-07T04:07:14;17.60;;;12.82;;
48685;SDS011;34485;51.536;3.816;2023-09-07T04:09:40;16.17;;;11.47;;
48685;SDS011;34485;51.536;3.816;2023-09-07T04:12:05;26.47;;;12.77;;
48685;SDS011;34485;51.536;3.816;2023-09-07T04:14:32;17.90;;;13.18;;
48685;SDS011;34485;51.536;3.816;2023-09-07T04:16:57;19.20;;;13.80;;
48685;SDS011;34485;51.536;3.816;2023-09-07T04:19:23;19.80;;;12.90;;
48685;SDS011;34485;51.536;3.816;2023-09-07T04:21:49;18.77;;;12.80;;
48685;SDS011;34485;51.536;3.816;2023-09-07T04:24:15;17.85;;;13.82;;
48685;SDS011;34485;51.536;3.816;2023-09-07T04:26:41;26.83;;;14.63;;
48685;SDS011;34485;51.536;3.816;2023-09-07T04:29:07;18.50;;;13.27;;
48685;SDS011;34485;51.536;3.816;2023-09-07T04:31:33;17.83;;;13.20;;
48685;SDS011;34485;51.536;3.816;2023-09-07T04:33:58;20.55;;;12.75;;
48685;SDS011;34485;51.536;3.816;2023-09-07T04:36:25;17.70;;;12.27;;
48685;SDS011;34485;51.536;3.816;2023-09-07T04:38:50;16.38;;;12.20;;
48685;SDS011;34485;51.536;3.816;2023-09-07T04:41:16;23.70;;;12.70;;
48685;SDS011;34485;51.536;3.816;2023-09-07T04:43:42;15.65;;;12.23;;
48685;SDS011;34485;51.536;3.816;2023-09-07T04:46:11;15.30;;;11.47;;
48685;SDS011;34485;51.536;3.816;2023-09-07T04:48:38;23.25;;;12.77;;
48685;SDS011;34485;51.536;3.816;2023-09-07T04:51:05;16.90;;;13.45;;
48685;SDS011;34485;51.536;3.816;2023-09-07T04:53:33;17.88;;;12.57;;
48685;SDS011;34485;51.536;3.816;2023-09-07T04:56:01;20.08;;;13.65;;
48685;SDS011;34485;51.536;3.816;2023-09-07T04:58:27;14.77;;;12.07;;
48685;SDS011;34485;51.536;3.816;2023-09-07T05:00:53;17.65;;;12.45;;
48685;SDS011;34485;51.536;3.816;2023-09-07T05:03:19;17.73;;;12.43;;
48685;SDS011;34485;51.536;3.816;2023-09-07T05:05:45;21.77;;;13.63;;
48685;SDS011;34485;51.536;3.816;2023-09-07T05:08:16;17.13;;;12.70;;
48685;SDS011;34485;51.536;3.816;2023-09-07T05:10:41;20.77;;;13.97;;
48685;SDS011;34485;51.536;3.816;2023-09-07T05:13:07;17.75;;;14.40;;
48685;SDS011;34485;51.536;3.816;2023-09-07T05:15:33;23.13;;;14.27;;
48685;SDS011;34485;51.536;3.816;2023-09-07T05:17:58;23.17;;;15.85;;
48685;SDS011;34485;51.536;3.816;2023-09-07T05:20:24;18.07;;;14.43;;
48685;SDS011;34485;51.536;3.816;2023-09-07T05:22:49;17.47;;;13.27;;
48685;SDS011;34485;51.536;3.816;2023-09-07T05:25:15;17.85;;;12.73;;
48685;SDS011;34485;51.536;3.816;2023-09-07T05:27:41;19.25;;;14.98;;
48685;SDS011;34485;51.536;3.816;2023-09-07T05:30:07;15.53;;;12.53;;
48685;SDS011;34485;51.536;3.816;2023-09-07T05:32:33;17.95;;;13.23;;
48685;SDS011;34485;51.536;3.816;2023-09-07T05:34:58;21.00;;;13.70;;
48685;SDS011;34485;51.536;3.816;2023-09-07T05:37:24;18.98;;;13.75;;
48685;SDS011;34485;51.536;3.816;2023-09-07T05:39:50;16.23;;;13.03;;
48685;SDS011;34485;51.536;3.816;2023-09-07T05:42:15;22.83;;;13.15;;
48685;SDS011;34485;51.536;3.816;2023-09-07T05:44:41;19.43;;;13.17;;
48685;SDS011;34485;51.536;3.816;2023-09-07T05:47:07;18.50;;;14.15;;
48685;SDS011;34485;51.536;3.816;2023-09-07T05:49:32;23.00;;;13.67;;
48685;SDS011;34485;51.536;3.816;2023-09-07T05:51:58;23.40;;;14.00;;
48685;SDS011;34485;51.536;3.816;2023-09-07T05:54:24;20.60;;;13.87;;
48685;SDS011;34485;51.536;3.816;2023-09-07T05:56:49;21.67;;;13.33;;
48685;SDS011;34485;51.536;3.816;2023-09-07T05:59:15;19.45;;;15.60;;
48685;SDS011;34485;51.536;3.816;2023-09-07T06:01:40;20.70;;;13.60;;
48685;SDS011;34485;51.536;3.816;2023-09-07T06:04:06;16.05;;;13.40;;
48685;SDS011;34485;51.536;3.816;2023-09-07T06:06:32;21.70;;;14.30;;
48685;SDS011;34485;51.536;3.816;2023-09-07T06:08:58;29.20;;;14.43;;
48685;SDS011;34485;51.536;3.816;2023-09-07T06:11:24;23.88;;;15.13;;
48685;SDS011;34485;51.536;3.816;2023-09-07T06:13:50;21.60;;;14.40;;
48685;SDS011;34485;51.536;3.816;2023-09-07T06:16:16;18.13;;;14.43;;
48685;SDS011;34485;51.536;3.816;2023-09-07T06:18:42;22.67;;;14.15;;
48685;SDS011;34485;51.536;3.816;2023-09-07T06:21:08;21.90;;;13.77;;
48685;SDS011;34485;51.536;3.816;2023-09-07T06:23:33;21.43;;;14.90;;
48685;SDS011;34485;51.536;3.816;2023-09-07T06:25:59;19.30;;;14.77;;
48685;SDS011;34485;51.536;3.816;2023-09-07T06:28:25;18.92;;;14.48;;
48685;SDS011;34485;51.536;3.816;2023-09-07T06:30:51;19.80;;;15.10;;
48685;SDS011;34485;51.536;3.816;2023-09-07T06:33:17;22.13;;;14.07;;
48685;SDS011;34485;51.536;3.816;2023-09-07T06:35:43;22.52;;;15.95;;
48685;SDS011;34485;51.536;3.816;2023-09-07T06:38:09;20.23;;;14.77;;
48685;SDS011;34485;51.536;3.816;2023-09-07T06:40:34;19.90;;;14.85;;
48685;SDS011;34485;51.536;3.816;2023-09-07T06:43:00;20.23;;;15.17;;
48685;SDS011;34485;51.536;3.816;2023-09-07T06:45:30;18.42;;;13.38;;
48685;SDS011;34485;51.536;3.816;2023-09-07T06:47:59;19.65;;;14.30;;
48685;SDS011;34485;51.536;3.816;2023-09-07T06:50:25;21.03;;;15.50;;
48685;SDS011;34485;51.536;3.816;2023-09-07T06:52:50;19.70;;;14.93;;
48685;SDS011;34485;51.536;3.816;2023-09-07T06:55:16;21.33;;;14.80;;
48685;SDS011;34485;51.536;3.816;2023-09-07T06:57:42;21.00;;;15.07;;
48685;SDS011;34485;51.536;3.816;2023-09-07T07:00:07;20.73;;;15.70;;
48685;SDS011;34485;51.536;3.816;2023-09-07T07:02:33;21.45;;;16.27;;
48685;SDS011;34485;51.536;3.816;2023-09-07T07:04:59;20.20;;;14.70;;
48685;SDS011;34485;51.536;3.816;2023-09-07T07:07:25;19.67;;;14.60;;
48685;SDS011;34485;51.536;3.816;2023-09-07T07:09:51;19.50;;;13.97;;
48685;SDS011;34485;51.536;3.816;2023-09-07T07:12:17;17.92;;;14.02;;
48685;SDS011;34485;51.536;3.816;2023-09-07T07:14:44;20.52;;;14.40;;
48685;SDS011;34485;51.536;3.816;2023-09-07T07:17:09;16.07;;;13.60;;
48685;SDS011;34485;51.536;3.816;2023-09-07T07:19:35;20.10;;;14.85;;
48685;SDS011;34485;51.536;3.816;2023-09-07T07:22:00;17.23;;;13.30;;
48685;SDS011;34485;51.536;3.816;2023-09-07T07:24:26;16.13;;;14.00;;
48685;SDS011;34485;51.536;3.816;2023-09-07T07:26:52;19.17;;;12.90;;
48685;SDS011;34485;51.536;3.816;2023-09-07T07:29:17;19.40;;;13.53;;
48685;SDS011;34485;51.536;3.816;2023-09-07T07:31:43;22.23;;;12.35;;
48685;SDS011;34485;51.536;3.816;2023-09-07T07:34:08;16.00;;;12.77;;
48685;SDS011;34485;51.536;3.816;2023-09-07T07:36:34;15.93;;;12.25;;
48685;SDS011;34485;51.536;3.816;2023-09-07T07:39:00;15.85;;;12.48;;
48685;SDS011;34485;51.536;3.816;2023-09-07T07:41:29;19.53;;;12.77;;
48685;SDS011;34485;51.536;3.816;2023-09-07T07:43:55;17.77;;;12.27;;
48685;SDS011;34485;51.536;3.816;2023-09-07T07:46:20;21.97;;;12.97;;
48685;SDS011;34485;51.536;3.816;2023-09-07T07:48:46;23.35;;;12.98;;
48685;SDS011;34485;51.536;3.816;2023-09-07T07:51:11;14.10;;;12.63;;
48685;SDS011;34485;51.536;3.816;2023-09-07T07:53:37;15.43;;;12.73;;
48685;SDS011;34485;51.536;3.816;2023-09-07T07:56:03;20.83;;;13.63;;
48685;SDS011;34485;51.536;3.816;2023-09-07T07:58:28;16.00;;;11.80;;
48685;SDS011;34485;51.536;3.816;2023-09-07T08:00:54;13.50;;;12.07;;
48685;SDS011;34485;51.536;3.816;2023-09-07T08:03:22;16.92;;;12.38;;
48685;SDS011;34485;51.536;3.816;2023-09-07T08:05:48;14.77;;;12.73;;
48685;SDS011;34485;51.536;3.816;2023-09-07T08:08:14;14.98;;;11.90;;
48685;SDS011;34485;51.536;3.816;2023-09-07T08:10:39;12.73;;;10.87;;
48685;SDS011;34485;51.536;3.816;2023-09-07T08:13:06;11.93;;;10.52;;
48685;SDS011;34485;51.536;3.816;2023-09-07T08:15:32;12.73;;;11.10;;
48685;SDS011;34485;51.536;3.816;2023-09-07T08:17:59;11.70;;;10.15;;
48685;SDS011;34485;51.536;3.816;2023-09-07T08:20:25;12.87;;;10.30;;
48685;SDS011;34485;51.536;3.816;2023-09-07T08:22:51;11.13;;;9.88;;
48685;SDS011;34485;51.536;3.816;2023-09-07T08:25:17;9.77;;;8.82;;
48685;SDS011;34485;51.536;3.816;2023-09-07T08:27:43;11.20;;;8.93;;
48685;SDS011;34485;51.536;3.816;2023-09-07T08:30:14;11.00;;;9.05;;
48685;SDS011;34485;51.536;3.816;2023-09-07T08:32:41;9.37;;;8.40;;
48685;SDS011;34485;51.536;3.816;2023-09-07T08:35:11;9.88;;;8.77;;
48685;SDS011;34485;51.536;3.816;2023-09-07T08:37:41;10.75;;;9.00;;
48685;SDS011;34485;51.536;3.816;2023-09-07T08:40:07;8.60;;;7.70;;
48685;SDS011;34485;51.536;3.816;2023-09-07T08:42:37;9.00;;;8.13;;
48685;SDS011;34485;51.536;3.816;2023-09-07T08:45:03;9.52;;;8.07;;
48685;SDS011;34485;51.536;3.816;2023-09-07T08:47:33;9.15;;;8.20;;
48685;SDS011;34485;51.536;3.816;2023-09-07T08:49:59;11.20;;;8.65;;
48685;SDS011;34485;51.536;3.816;2023-09-07T08:52:26;9.17;;;8.00;;
48685;SDS011;34485;51.536;3.816;2023-09-07T08:54:52;8.85;;;7.97;;
48685;SDS011;34485;51.536;3.816;2023-09-07T08:57:19;14.20;;;8.25;;
48685;SDS011;34485;51.536;3.816;2023-09-07T08:59:46;10.50;;;7.60;;
48685;SDS011;34485;51.536;3.816;2023-09-07T09:02:12;11.88;;;8.05;;
48685;SDS011;34485;51.536;3.816;2023-09-07T09:04:38;9.30;;;6.95;;
48685;SDS011;34485;51.536;3.816;2023-09-07T09:07:04;9.40;;;8.50;;
48685;SDS011;34485;51.536;3.816;2023-09-07T09:09:29;8.38;;;7.57;;
48685;SDS011;34485;51.536;3.816;2023-09-07T09:12:05;8.40;;;7.70;;
48685;SDS011;34485;51.536;3.816;2023-09-07T09:14:32;8.55;;;7.68;;
48685;SDS011;34485;51.536;3.816;2023-09-07T09:16:57;10.20;;;7.93;;
48685;SDS011;34485;51.536;3.816;2023-09-07T09:19:32;9.80;;;8.23;;
48685;SDS011;34485;51.536;3.816;2023-09-07T09:21:59;8.53;;;7.73;;
48685;SDS011;34485;51.536;3.816;2023-09-07T09:24:25;7.85;;;7.03;;
48685;SDS011;34485;51.536;3.816;2023-09-07T09:26:51;12.13;;;8.55;;
48685;SDS011;34485;51.536;3.816;2023-09-07T09:29:21;8.48;;;7.60;;
48685;SDS011;34485;51.536;3.816;2023-09-07T09:31:50;10.23;;;8.73;;
48685;SDS011;34485;51.536;3.816;2023-09-07T09:34:18;9.10;;;7.90;;
48685;SDS011;34485;51.536;3.816;2023-09-07T09:36:44;8.68;;;7.78;;
48685;SDS011;34485;51.536;3.816;2023-09-07T09:39:10;9.85;;;7.85;;
48685;SDS011;34485;51.536;3.816;2023-09-07T09:41:46;10.60;;;7.87;;
48685;SDS011;34485;51.536;3.816;2023-09-07T09:44:12;8.80;;;7.90;;
48685;SDS011;34485;51.536;3.816;2023-09-07T09:46:38;10.13;;;7.90;;
48685;SDS011;34485;51.536;3.816;2023-09-07T09:49:05;9.38;;;8.48;;
48685;SDS011;34485;51.536;3.816;2023-09-07T09:51:33;8.63;;;7.73;;
48685;SDS011;34485;51.536;3.816;2023-09-07T09:54:01;8.20;;;7.50;;
48685;SDS011;34485;51.536;3.816;2023-09-07T09:56:27;7.95;;;7.20;;
48685;SDS011;34485;51.536;3.816;2023-09-07T09:58:53;8.87;;;7.80;;
48685;SDS011;34485;51.536;3.816;2023-09-07T10:01:18;9.48;;;8.43;;
48685;SDS011;34485;51.536;3.816;2023-09-07T10:03:45;8.50;;;7.63;;
48685;SDS011;34485;51.536;3.816;2023-09-07T10:06:20;9.48;;;7.38;;
48685;SDS011;34485;51.536;3.816;2023-09-07T10:09:04;10.15;;;7.35;;
48685;SDS011;34485;51.536;3.816;2023-09-07T10:11:38;8.85;;;7.45;;
48685;SDS011;34485;51.536;3.816;2023-09-07T10:14:05;9.73;;;6.93;;
48685;SDS011;34485;51.536;3.816;2023-09-07T10:19:29;9.50;;;6.57;;
48685;SDS011;34485;51.536;3.816;2023-09-07T10:21:55;7.70;;;6.93;;
48685;SDS011;34485;51.536;3.816;2023-09-07T10:24:29;9.32;;;7.40;;
48685;SDS011;34485;51.536;3.816;2023-09-07T10:32:37;7.18;;;6.47;;
48685;SDS011;34485;51.536;3.816;2023-09-07T10:35:12;11.38;;;7.38;;
48685;SDS011;34485;51.536;3.816;2023-09-07T10:37:38;8.55;;;6.25;;
48685;SDS011;34485;51.536;3.816;2023-09-07T10:40:05;8.43;;;5.87;;
48685;SDS011;34485;51.536;3.816;2023-09-07T10:42:36;7.15;;;6.45;;
48685;SDS011;34485;51.536;3.816;2023-09-07T10:45:12;6.07;;;5.55;;
48685;SDS011;34485;51.536;3.816;2023-09-07T10:47:44;6.82;;;5.70;;
48685;SDS011;34485;51.536;3.816;2023-09-07T10:50:11;7.05;;;5.60;;
48685;SDS011;34485;51.536;3.816;2023-09-07T10:52:38;5.57;;;4.93;;
48685;SDS011;34485;51.536;3.816;2023-09-07T10:55:05;10.45;;;5.28;;
48685;SDS011;34485;51.536;3.816;2023-09-07T10:57:31;5.88;;;5.28;;
48685;SDS011;34485;51.536;3.816;2023-09-07T10:59:56;5.80;;;5.10;;
48685;SDS011;34485;51.536;3.816;2023-09-07T11:02:22;5.35;;;4.85;;
48685;SDS011;34485;51.536;3.816;2023-09-07T11:04:48;6.93;;;4.67;;
48685;SDS011;34485;51.536;3.816;2023-09-07T11:07:13;5.90;;;5.00;;
48685;SDS011;34485;51.536;3.816;2023-09-07T11:09:40;5.30;;;4.88;;
48685;SDS011;34485;51.536;3.816;2023-09-07T11:12:06;4.95;;;4.53;;
48685;SDS011;34485;51.536;3.816;2023-09-07T11:14:33;6.32;;;4.50;;
48685;SDS011;34485;51.536;3.816;2023-09-07T11:16:58;5.83;;;4.70;;
48685;SDS011;34485;51.536;3.816;2023-09-07T11:19:26;5.32;;;4.80;;
48685;SDS011;34485;51.536;3.816;2023-09-07T11:21:54;4.97;;;4.68;;
48685;SDS011;34485;51.536;3.816;2023-09-07T11:24:20;5.07;;;4.55;;
48685;SDS011;34485;51.536;3.816;2023-09-07T11:26:46;4.73;;;4.33;;
48685;SDS011;34485;51.536;3.816;2023-09-07T11:29:15;4.18;;;3.75;;
48685;SDS011;34485;51.536;3.816;2023-09-07T11:31:42;5.28;;;4.00;;
48685;SDS011;34485;51.536;3.816;2023-09-07T11:34:08;4.77;;;4.03;;
48685;SDS011;34485;51.536;3.816;2023-09-07T11:36:35;4.15;;;3.78;;
48685;SDS011;34485;51.536;3.816;2023-09-07T11:39:01;8.52;;;4.53;;
48685;SDS011;34485;51.536;3.816;2023-09-07T11:41:37;4.65;;;4.32;;
48685;SDS011;34485;51.536;3.816;2023-09-07T11:44:09;4.00;;;3.70;;
48685;SDS011;34485;51.536;3.816;2023-09-07T11:46:36;4.00;;;3.70;;
48685;SDS011;34485;51.536;3.816;2023-09-07T11:49:02;5.40;;;4.05;;
48685;SDS011;34485;51.536;3.816;2023-09-07T11:51:29;4.97;;;4.03;;
48685;SDS011;34485;51.536;3.816;2023-09-07T11:53:55;3.92;;;3.63;;
48685;SDS011;34485;51.536;3.816;2023-09-07T11:56:21;4.30;;;3.87;;
48685;SDS011;34485;51.536;3.816;2023-09-07T11:58:46;3.90;;;3.60;;
48685;SDS011;34485;51.536;3.816;2023-09-07T12:01:13;5.40;;;3.73;;
48685;SDS011;34485;51.536;3.816;2023-09-07T12:03:41;3.85;;;3.45;;
48685;SDS011;34485;51.536;3.816;2023-09-07T12:06:08;3.63;;;3.33;;
48685;SDS011;34485;51.536;3.816;2023-09-07T12:08:34;4.18;;;3.78;;
48685;SDS011;34485;51.536;3.816;2023-09-07T12:11:00;3.40;;;3.20;;
48685;SDS011;34485;51.536;3.816;2023-09-07T12:13:26;4.03;;;3.57;;
48685;SDS011;34485;51.536;3.816;2023-09-07T12:15:51;4.70;;;3.50;;
48685;SDS011;34485;51.536;3.816;2023-09-07T12:18:17;7.60;;;3.42;;
48685;SDS011;34485;51.536;3.816;2023-09-07T12:20:43;6.47;;;3.50;;
48685;SDS011;34485;51.536;3.816;2023-09-07T12:23:10;6.47;;;3.13;;
48685;SDS011;34485;51.536;3.816;2023-09-07T12:25:35;6.03;;;3.37;;
48685;SDS011;34485;51.536;3.816;2023-09-07T12:28:02;4.10;;;3.70;;
48685;SDS011;34485;51.536;3.816;2023-09-07T12:30:28;5.45;;;3.63;;
48685;SDS011;34485;51.536;3.816;2023-09-07T12:32:54;3.58;;;3.22;;
48685;SDS011;34485;51.536;3.816;2023-09-07T12:35:20;4.33;;;3.40;;
48685;SDS011;34485;51.536;3.816;2023-09-07T12:37:46;3.78;;;3.30;;
48685;SDS011;34485;51.536;3.816;2023-09-07T12:40:12;4.60;;;3.67;;
48685;SDS011;34485;51.536;3.816;2023-09-07T12:42:44;5.10;;;3.37;;
48685;SDS011;34485;51.536;3.816;2023-09-07T12:45:11;5.05;;;3.40;;
48685;SDS011;34485;51.536;3.816;2023-09-07T12:47:37;5.95;;;2.90;;
48685;SDS011;34485;51.536;3.816;2023-09-07T12:50:04;5.15;;;3.30;;
48685;SDS011;34485;51.536;3.816;2023-09-07T12:52:30;6.70;;;3.53;;
48685;SDS011;34485;51.536;3.816;2023-09-07T12:54:56;4.22;;;3.53;;
48685;SDS011;34485;51.536;3.816;2023-09-07T12:57:22;4.25;;;3.20;;
48685;SDS011;34485;51.536;3.816;2023-09-07T12:59:47;4.83;;;3.53;;
48685;SDS011;34485;51.536;3.816;2023-09-07T13:02:14;4.65;;;3.10;;
48685;SDS011;34485;51.536;3.816;2023-09-07T13:04:39;8.70;;;3.53;;
48685;SDS011;34485;51.536;3.816;2023-09-07T13:07:05;7.68;;;3.65;;
48685;SDS011;34485;51.536;3.816;2023-09-07T13:09:31;4.13;;;3.13;;
48685;SDS011;34485;51.536;3.816;2023-09-07T13:11:57;3.78;;;3.17;;
48685;SDS011;34485;51.536;3.816;2023-09-07T13:14:22;4.70;;;3.60;;
48685;SDS011;34485;51.536;3.816;2023-09-07T13:16:48;3.70;;;3.40;;
48685;SDS011;34485;51.536;3.816;2023-09-07T13:19:15;6.63;;;3.50;;
48685;SDS011;34485;51.536;3.816;2023-09-07T13:21:41;3.50;;;3.20;;
48685;SDS011;34485;51.536;3.816;2023-09-07T13:24:07;4.10;;;3.80;;
48685;SDS011;34485;51.536;3.816;2023-09-07T13:26:32;3.57;;;3.27;;
48685;SDS011;34485;51.536;3.816;2023-09-07T13:28:58;3.73;;;3.43;;
48685;SDS011;34485;51.536;3.816;2023-09-07T13:31:23;3.80;;;3.50;;
48685;SDS011;34485;51.536;3.816;2023-09-07T13:33:49;5.28;;;3.35;;
48685;SDS011;34485;51.536;3.816;2023-09-07T13:36:15;6.03;;;3.20;;
48685;SDS011;34485;51.536;3.816;2023-09-07T13:38:42;4.00;;;3.63;;
48685;SDS011;34485;51.536;3.816;2023-09-07T13:41:08;4.28;;;3.85;;
48685;SDS011;34485;51.536;3.816;2023-09-07T13:43:34;5.03;;;3.55;;
48685;SDS011;34485;51.536;3.816;2023-09-07T13:46:00;7.30;;;3.40;;
48685;SDS011;34485;51.536;3.816;2023-09-07T13:48:25;3.95;;;3.63;;
48685;SDS011;34485;51.536;3.816;2023-09-07T13:50:51;3.50;;;3.20;;
48685;SDS011;34485;51.536;3.816;2023-09-07T13:53:17;3.40;;;3.20;;
48685;SDS011;34485;51.536;3.816;2023-09-07T13:55:42;4.57;;;3.50;;
48685;SDS011;34485;51.536;3.816;2023-09-07T13:58:11;3.40;;;3.20;;
48685;SDS011;34485;51.536;3.816;2023-09-07T14:00:36;4.03;;;3.60;;
48685;SDS011;34485;51.536;3.816;2023-09-07T14:03:03;3.97;;;3.65;;
48685;SDS011;34485;51.536;3.816;2023-09-07T14:05:29;3.17;;;2.97;;
48685;SDS011;34485;51.536;3.816;2023-09-07T14:07:55;3.60;;;3.30;;
48685;SDS011;34485;51.536;3.816;2023-09-07T14:10:22;5.47;;;3.85;;
48685;SDS011;34485;51.536;3.816;2023-09-07T14:12:47;3.50;;;3.28;;
48685;SDS011;34485;51.536;3.816;2023-09-07T14:15:13;3.50;;;3.20;;
48685;SDS011;34485;51.536;3.816;2023-09-07T14:17:39;3.75;;;3.30;;
48685;SDS011;34485;51.536;3.816;2023-09-07T14:20:08;3.55;;;3.00;;
48685;SDS011;34485;51.536;3.816;2023-09-07T14:22:34;6.25;;;4.00;;
48685;SDS011;34485;51.536;3.816;2023-09-07T14:25:00;4.20;;;3.90;;
48685;SDS011;34485;51.536;3.816;2023-09-07T14:27:26;3.63;;;3.28;;
48685;SDS011;34485;51.536;3.816;2023-09-07T14:29:52;3.75;;;3.40;;
48685;SDS011;34485;51.536;3.816;2023-09-07T14:32:18;3.70;;;3.40;;
48685;SDS011;34485;51.536;3.816;2023-09-07T14:34:44;3.87;;;3.47;;
48685;SDS011;34485;51.536;3.816;2023-09-07T14:37:10;3.15;;;2.92;;